createdAt,value
2019-04-03T00:10:08.340Z,6.93
2019-04-03T00:21:09.669Z,6.83
2019-04-03T00:32:09.098Z,6.75
2019-04-03T00:43:09.741Z,6.66
2019-04-03T00:54:11.799Z,6.63
2019-04-03T01:05:12.103Z,6.57
2019-04-03T01:16:10.825Z,6.42
2019-04-03T01:27:12.200Z,6.32
2019-04-03T01:38:15.571Z,6.14
2019-04-03T01:49:18.495Z,6.08
2019-04-03T02:00:23.124Z,6.15
2019-04-03T02:11:22.925Z,6.10
2019-04-03T02:22:20.111Z,5.95
2019-04-03T02:33:20.029Z,6.13
2019-04-03T02:44:23.321Z,6.13
2019-04-03T02:55:22.909Z,6.06
2019-04-03T03:06:27.320Z,5.90
2019-04-03T03:17:24.970Z,5.77
2019-04-03T03:28:29.409Z,5.59
2019-04-03T03:39:33.233Z,5.54
2019-04-03T03:50:30.796Z,5.32
2019-04-03T04:01:31.761Z,5.26
2019-04-03T04:12:30.792Z,4.93
2019-04-03T04:23:31.958Z,5.00
2019-04-03T04:34:35.195Z,5.20
2019-04-03T04:45:37.732Z,5.00
2019-04-03T04:56:39.705Z,5.13
2019-04-03T05:07:41.844Z,5.32
2019-04-03T05:18:49.245Z,5.65
2019-04-03T05:29:53.592Z,5.81
2019-04-03T05:40:57.093Z,5.88
2019-04-03T05:51:58.247Z,6.51
2019-04-03T06:02:57.737Z,7.20
2019-04-03T06:14:00.966Z,7.96
2019-04-03T06:25:00.091Z,8.72
2019-04-03T06:36:03.561Z,9.45
2019-04-03T06:47:07.091Z,10.16
2019-04-03T06:58:06.634Z,10.75
2019-04-03T07:09:07.355Z,11.42
2019-04-03T07:20:13.468Z,11.98
2019-04-03T07:31:12.588Z,12.96
2019-04-03T07:42:14.004Z,13.68
2019-04-03T07:53:14.780Z,14.17
2019-04-03T08:04:19.111Z,14.42
2019-04-03T08:15:21.566Z,14.74
2019-04-03T08:26:22.847Z,15.16
2019-04-03T08:37:30.191Z,15.55
2019-04-03T08:48:29.542Z,16.08
2019-04-03T08:59:31.258Z,16.06
2019-04-03T09:10:32.685Z,16.55
2019-04-03T09:21:33.663Z,16.96
2019-04-03T09:32:36.515Z,17.50
2019-04-03T09:43:39.063Z,17.48
2019-04-03T09:54:39.906Z,18.07
2019-04-03T10:05:43.480Z,17.28
2019-04-03T10:16:39.644Z,18.14
2019-04-03T10:27:44.697Z,18.69
2019-04-03T10:38:43.735Z,19.01
2019-04-03T10:49:42.773Z,19.33
2019-04-03T11:00:44.613Z,18.69
2019-04-03T11:11:42.983Z,18.99
2019-04-03T11:22:43.510Z,19.42
2019-04-03T11:33:44.766Z,19.60
2019-04-03T11:44:44.762Z,21.16
2019-04-03T11:55:46.556Z,21.63
2019-04-03T12:06:52.275Z,20.64
2019-04-03T12:17:47.833Z,20.59
2019-04-03T12:28:53.300Z,20.64
2019-04-03T12:39:58.217Z,20.31
2019-04-03T12:51:00.304Z,19.48
2019-04-03T13:02:04.018Z,19.60
2019-04-03T13:13:10.903Z,22.94
2019-04-03T13:24:12.555Z,21.56
2019-04-03T13:35:00.647Z,21.91
2019-04-03T13:45:36.248Z,22.68
2019-04-03T13:56:31.437Z,20.27
2019-04-03T14:07:32.977Z,20.20
2019-04-03T14:18:30.534Z,19.39
2019-04-03T14:29:30.318Z,19.20
2019-04-03T14:40:30.227Z,18.67
2019-04-03T14:51:21.517Z,16.93
2019-04-03T15:02:16.130Z,16.18
2019-04-03T15:13:07.356Z,15.83
2019-04-03T15:24:11.385Z,17.08
2019-04-03T15:35:09.049Z,18.03
2019-04-03T15:46:02.890Z,17.32
2019-04-03T15:57:03.230Z,17.15
2019-04-03T16:08:01.277Z,16.44
2019-04-03T16:18:54.920Z,16.16
2019-04-03T16:29:56.299Z,16.03
2019-04-03T16:40:58.723Z,16.23
2019-04-03T16:51:47.866Z,16.29
2019-04-03T17:02:51.052Z,16.07
2019-04-03T17:13:52.388Z,15.89
2019-04-03T17:24:54.388Z,15.60
2019-04-03T17:35:58.260Z,15.38
2019-04-03T17:46:58.675Z,15.05
2019-04-03T17:57:58.075Z,14.93
2019-04-03T18:09:03.444Z,14.67
2019-04-03T18:20:03.676Z,14.53
2019-04-03T18:31:04.855Z,14.53
2019-04-03T18:42:05.635Z,14.28
2019-04-03T18:53:02.221Z,13.74
2019-04-03T19:04:06.952Z,13.33
2019-04-03T19:15:06.239Z,13.29
2019-04-03T19:26:06.707Z,12.70
2019-04-03T19:37:03.615Z,11.93
2019-04-03T19:48:02.593Z,11.39
2019-04-03T19:59:04.836Z,10.98
2019-04-03T20:10:04.043Z,10.56
2019-04-03T20:20:59.660Z,10.44
2019-04-03T20:32:01.388Z,10.21
2019-04-03T20:42:58.048Z,9.86
2019-04-03T20:53:52.259Z,9.60
2019-04-03T21:04:55.742Z,9.50
2019-04-03T21:15:57.021Z,9.49
2019-04-03T21:26:58.747Z,9.27
2019-04-03T21:37:58.043Z,9.16
2019-04-03T21:48:56.119Z,9.22
2019-04-03T22:00:00.072Z,9.14
2019-04-03T22:11:04.675Z,8.95
2019-04-03T22:22:04.063Z,8.69
2019-04-03T22:33:07.234Z,8.52
2019-04-03T22:44:08.404Z,8.09
2019-04-03T22:55:07.895Z,7.82
2019-04-03T23:06:11.395Z,7.64
2019-04-03T23:17:11.951Z,7.45
2019-04-03T23:28:16.447Z,7.49
2019-04-03T23:39:16.549Z,7.34
2019-04-03T23:50:14.598Z,7.01
